createdAt,value
2022-11-21T00:02:39.186Z,1017.6
2022-11-21T00:08:20.375Z,1017.4
2022-11-21T00:14:00.844Z,1017.5
2022-11-21T00:19:30.382Z,1017.2
2022-11-21T00:24:42.129Z,1017.4
2022-11-21T00:30:33.753Z,1017.3
2022-11-21T00:36:14.036Z,1017.2
2022-11-21T00:41:22.755Z,1017.1
2022-11-21T00:47:04.895Z,1017.1
2022-11-21T00:52:41.335Z,1016.9
2022-11-21T00:58:01.234Z,1017
2022-11-21T01:03:50.527Z,1017
2022-11-21T01:09:05.274Z,1016.7
2022-11-21T01:14:44.702Z,1016.7
2022-11-21T01:20:16.715Z,1016.8
2022-11-21T01:26:08.354Z,1016.7
2022-11-21T01:31:22.626Z,1016.6
2022-11-21T01:37:08.220Z,1016.4
2022-11-21T01:42:36.549Z,1016.3
2022-11-21T01:48:18.625Z,1016.1
2022-11-21T01:53:59.006Z,1016
2022-11-21T01:59:29.932Z,1016
2022-11-21T02:05:00.467Z,1016
2022-11-21T02:10:17.230Z,1016.2
2022-11-21T02:16:03.285Z,1016.2
2022-11-21T02:21:24.765Z,1016.3
2022-11-21T02:27:09.511Z,1016.2
2022-11-21T02:32:51.056Z,1016
2022-11-21T02:38:10.868Z,1016.1
2022-11-21T02:43:35.403Z,1015.9
2022-11-21T02:49:15.416Z,1015.9
2022-11-21T02:54:56.596Z,1015.9
2022-11-21T03:00:20.710Z,1015.9
2022-11-21T03:05:41.337Z,1016
2022-11-21T03:11:34.144Z,1015.9
2022-11-21T03:17:05.468Z,1015.9
2022-11-21T03:22:30.561Z,1015.7
2022-11-21T03:27:55.174Z,1015.6
2022-11-21T03:33:45.239Z,1015.4
2022-11-21T03:39:01.470Z,1015.4
2022-11-21T03:44:45.313Z,1015.3
2022-11-21T03:50:26.366Z,1015.4
2022-11-21T03:55:50.836Z,1015.4
2022-11-21T04:01:14.864Z,1015.4
2022-11-21T04:07:06.192Z,1015.4
2022-11-21T04:12:20.193Z,1015.4
2022-11-21T04:18:02.193Z,1015.3
2022-11-21T04:23:35.238Z,1015.3
2022-11-21T04:29:14.523Z,1015.3
2022-11-21T04:34:54.128Z,1015.3
2022-11-21T04:40:25.579Z,1015.1
2022-11-21T04:45:59.480Z,1015
2022-11-21T04:51:18.753Z,1015
2022-11-21T04:56:54.545Z,1015
2022-11-21T05:02:26.341Z,1014.9
2022-11-21T05:08:08.571Z,1015
2022-11-21T05:13:35.633Z,1015
2022-11-21T05:19:11.334Z,1014.8
2022-11-21T05:24:47.776Z,1015.1
2022-11-21T05:30:18.321Z,1015.1
2022-11-21T05:35:43.525Z,1015.1
2022-11-21T05:41:19.664Z,1015.1
2022-11-21T05:46:43.185Z,1015
2022-11-21T05:52:27.914Z,1014.8
2022-11-21T05:58:08.234Z,1014.7
2022-11-21T06:03:33.704Z,1014.7
2022-11-21T06:09:12.815Z,1014.5
2022-11-21T06:14:47.574Z,1014.6
2022-11-21T06:20:10.470Z,1014.5
2022-11-21T06:25:56.638Z,1014.4
2022-11-21T06:31:21.659Z,1014.2
2022-11-21T06:37:01.187Z,1014.4
2022-11-21T06:42:23.972Z,1014.5
2022-11-21T06:48:09.895Z,1014.6
2022-11-21T06:53:42.948Z,1014.6
2022-11-21T06:59:09.553Z,1014.3
2022-11-21T07:04:45.797Z,1014.1
2022-11-21T07:10:11.656Z,1014.1
2022-11-21T07:15:34.198Z,1014.1
2022-11-21T07:21:13.339Z,1014.1
2022-11-21T07:27:03.592Z,1014
2022-11-21T07:32:26.289Z,1014.2
2022-11-21T07:37:58.085Z,1014
2022-11-21T07:43:20.419Z,1013.7
2022-11-21T07:48:59.400Z,1013.4
2022-11-21T07:54:29.428Z,1013.2
2022-11-21T08:00:11.819Z,1013.1
2022-11-21T08:05:40.098Z,1013
2022-11-21T08:11:21.520Z,1012.8
2022-11-21T08:17:03.093Z,1012.7
2022-11-21T08:22:10.013Z,1012.5
2022-11-21T08:33:20.147Z,1012.3
2022-11-21T08:38:50.832Z,1012.2
2022-11-21T08:44:48.835Z,1012.1
2022-11-21T08:50:26.920Z,1011.9
2022-11-21T08:56:01.472Z,1011.9
2022-11-21T09:01:21.078Z,1011.9
2022-11-21T09:07:02.920Z,1011.8
2022-11-21T09:12:22.590Z,1011.7
2022-11-21T09:17:48.881Z,1011.7
2022-11-21T09:23:21.019Z,1011.4
2022-11-21T09:29:06.850Z,1011
2022-11-21T09:34:27.074Z,1010.8
2022-11-21T09:39:58.432Z,1011
2022-11-21T09:45:32.874Z,1010.8
2022-11-21T09:51:24.758Z,1010.7
2022-11-21T09:56:43.816Z,1010.7
2022-11-21T10:02:35.870Z,1010.4
2022-11-21T10:07:47.245Z,1010.3
2022-11-21T10:13:22.203Z,1010.2
2022-11-21T10:18:53.398Z,1009.9
2022-11-21T10:24:42.549Z,1009.7
2022-11-21T10:29:58.806Z,1009.4
2022-11-21T10:35:57.710Z,1009.1
2022-11-21T10:41:30.692Z,1009
2022-11-21T10:46:52.218Z,1008.9
2022-11-21T10:52:11.390Z,1009
2022-11-21T10:57:57.223Z,1008.8
2022-11-21T11:03:31.655Z,1008.7
2022-11-21T11:09:18.214Z,1008.3
2022-11-21T11:14:38.098Z,1008.1
2022-11-21T11:20:00.624Z,1007.7
2022-11-21T11:25:41.812Z,1007.5
2022-11-21T11:31:31.833Z,1007.3
2022-11-21T11:36:54.598Z,1007.2
2022-11-21T11:42:29.295Z,1007.1
2022-11-21T11:48:11.142Z,1007
2022-11-21T11:53:31.696Z,1007
2022-11-21T11:59:11.162Z,1006.8
2022-11-21T12:04:51.163Z,1006.5
2022-11-21T12:10:05.039Z,1006.3
2022-11-21T12:15:52.584Z,1006.2
2022-11-21T12:21:25.262Z,1006.1
2022-11-21T12:26:47.077Z,1006
2022-11-21T12:32:17.962Z,1006
2022-11-21T12:37:55.442Z,1005.9
2022-11-21T12:43:37.295Z,1005.6
2022-11-21T12:48:52.464Z,1005.6
2022-11-21T12:54:27.920Z,1005.3
2022-11-21T13:00:06.103Z,1005.3
2022-11-21T13:05:52.662Z,1005.3
2022-11-21T13:11:03.586Z,1005.1
2022-11-21T13:16:56.353Z,1005
2022-11-21T13:22:12.258Z,1004.8
2022-11-21T13:27:39.550Z,1004.6
2022-11-21T13:33:35.949Z,1004.5
2022-11-21T13:39:03.821Z,1004.4
2022-11-21T13:44:35.338Z,1004.3
2022-11-21T13:50:04.438Z,1004.3
2022-11-21T13:55:28.191Z,1004.4
2022-11-21T14:00:58.687Z,1004.3
2022-11-21T14:06:35.413Z,1004.3
2022-11-21T14:12:06.477Z,1004.2
2022-11-21T14:17:57.273Z,1004.2
2022-11-21T14:23:15.994Z,1004.2
2022-11-21T14:29:02.967Z,1004
2022-11-21T14:34:38.470Z,1003.8
2022-11-21T14:40:07.497Z,1003.6
2022-11-21T14:45:23.466Z,1003.6
2022-11-21T14:51:15.510Z,1003.8
2022-11-21T14:56:36.993Z,1003.7
2022-11-21T15:01:58.794Z,1003.6
2022-11-21T15:07:32.189Z,1003.4
2022-11-21T15:13:22.921Z,1003.4
2022-11-21T15:18:35.440Z,1003.3
2022-11-21T15:24:07.575Z,1003.3
2022-11-21T15:29:57.507Z,1003.5
2022-11-21T15:35:25.375Z,1003.4
2022-11-21T15:40:47.665Z,1003.3
2022-11-21T15:46:16.279Z,1003.5
2022-11-21T15:52:06.875Z,1003.2
2022-11-21T15:57:41.116Z,1003.1
2022-11-21T16:02:49.984Z,1002.9
2022-11-21T16:08:48.222Z,1002.9
2022-11-21T16:13:57.932Z,1002.9
2022-11-21T16:19:49.665Z,1002.9
2022-11-21T16:25:15.597Z,1003
2022-11-21T16:30:42.300Z,1003
2022-11-21T16:36:15.381Z,1002.8
2022-11-21T16:41:37.014Z,1002.8
2022-11-21T16:47:33.147Z,1002.7
2022-11-21T16:52:50.692Z,1002.9
2022-11-21T16:58:28.768Z,1003
2022-11-21T17:03:47.575Z,1003
2022-11-21T17:09:37.446Z,1002.9
2022-11-21T17:14:58.315Z,1002.9
2022-11-21T17:20:42.818Z,1002.6
2022-11-21T17:25:54.538Z,1002.7
2022-11-21T17:31:34.938Z,1003
2022-11-21T17:37:22.263Z,1003.1
2022-11-21T17:42:59.194Z,1003.3
2022-11-21T17:48:13.779Z,1003.3
2022-11-21T17:53:49.286Z,1003.3
2022-11-21T17:59:27.271Z,1003.3
2022-11-21T18:05:07.395Z,1003.3
2022-11-21T18:10:43.104Z,1003.3
2022-11-21T18:16:10.437Z,1003.3
2022-11-21T18:21:33.227Z,1003.3
2022-11-21T18:27:19.250Z,1003.5
2022-11-21T18:32:31.790Z,1003.6
2022-11-21T18:38:32.947Z,1003.5
2022-11-21T18:43:58.134Z,1003.5
2022-11-21T18:49:34.679Z,1003.5
2022-11-21T18:54:51.000Z,1003.6
2022-11-21T19:00:16.663Z,1003.5
2022-11-21T19:05:49.710Z,1003.5
2022-11-21T19:11:37.579Z,1003.5
2022-11-21T19:17:15.012Z,1003.4
2022-11-21T19:22:52.423Z,1003.3
2022-11-21T19:28:03.796Z,1003.3
2022-11-21T19:33:40.405Z,1003.1
2022-11-21T19:39:22.056Z,1003
2022-11-21T19:44:55.312Z,1003
2022-11-21T19:50:07.955Z,1002.9
2022-11-21T19:55:52.311Z,1002.7
2022-11-21T20:01:39.456Z,1002.6
2022-11-21T20:06:47.338Z,1002.6
2022-11-21T20:12:37.105Z,1002.6
2022-11-21T20:23:38.068Z,1002.4
2022-11-21T20:29:10.154Z,1002.3
2022-11-21T20:34:52.002Z,1002.4
2022-11-21T20:40:22.613Z,1002.4
2022-11-21T20:46:09.019Z,1002.4
2022-11-21T20:56:44.470Z,1002.5
2022-11-21T21:02:11.306Z,1002.5
2022-11-21T21:08:02.913Z,1002.5
2022-11-21T21:13:20.792Z,1002.5
2022-11-21T21:18:52.508Z,1002.4
2022-11-21T21:24:30.037Z,1002.3
2022-11-21T21:30:16.331Z,1002.4
2022-11-21T21:35:31.641Z,1002.3
2022-11-21T21:41:16.603Z,1002.4
2022-11-21T21:46:46.240Z,1002.4
2022-11-21T21:52:02.734Z,1002.5
2022-11-21T21:58:00.778Z,1002.5
2022-11-21T22:03:05.285Z,1002.7
2022-11-21T22:08:48.559Z,1002.5
2022-11-21T22:14:25.105Z,1002.5
2022-11-21T22:19:43.047Z,1002.5
2022-11-21T22:25:15.623Z,1002.5
2022-11-21T22:30:50.246Z,1002.6
2022-11-21T22:36:41.094Z,1002.5
2022-11-21T22:42:15.617Z,1002.3
2022-11-21T22:47:48.382Z,1002.3
2022-11-21T22:52:58.760Z,1002.2
2022-11-21T22:58:40.595Z,1002.2
2022-11-21T23:04:24.428Z,1002.1
2022-11-21T23:09:55.445Z,1002.1
2022-11-21T23:15:29.146Z,1002.1
2022-11-21T23:20:59.270Z,1002.1
2022-11-21T23:26:16.434Z,1002.1
2022-11-21T23:31:53.614Z,1002.2
2022-11-21T23:37:21.977Z,1002.3
2022-11-21T23:42:51.719Z,1002.4
2022-11-21T23:48:20.458Z,1002.4
2022-11-21T23:54:10.436Z,1002.4
2022-11-21T23:59:37.166Z,1002.4
